38OI weather

Ronshausen Airport
Darbyville, Ohio, United States

Public forecast

Using degrees Fahrenheit for public forecast. Weather courtesy of forecast.io.

Closest aviation weather report (METAR) to Ronshausen Airport

Closest report is Rickenbacker International Airport, 10.2 nm (18.9 km) NE. Retrieved 2020/07/07 09:55 UTC (18 minutes ago):

KLCK 070955Z AUTO 21005KT 10SM BKN060 23/21 A3001 RMK AO2 T02290209

Closest aviation forecast (TAF) to Ronshausen Airport

Closest forecast is Rickenbacker International Airport, 10.2 nm (18.9 km) NE. Retrieved 2020/07/07 06:00 UTC (4 hours ago):

TAF KLCK 070547Z 0706/0806 00000KT P6SM SCT200 FM071500 00000KT P6SM FEW045 FM071600 22005KT P6SM VCSH SCT045 FM080000 VRB03KT P6SM SCT200